• Join FlightAware (Why Join?)
  • Login
  • US Flag 
11:00PM EDT


 

Airport Tracker/Info


-or-


 

Live Flight TrackerFlight Track Log ✈ UAL4849 ✈ 28-Apr-2013 ✈ KBWI - KCLE

Flight Track Log - Related Links

Times and Time Zones

All times are in EDT time to prevent confusion due to time zone crossing. See the UAL4849 flight status page for this flight to view local times or setup timezone preferences in your user account.

Time Position Orientation Groundspeed Altitude Reporting Facility
EDT Latitude Longitude Course Direction KTS MPH feet Rate Location/Type
02:14PM 39.2000 -76.6333 270° West 184 212 1,800  Level Potomac TRACON
02:15PM 39.2500 -76.6000 27° Northeast 201 231 3,100 1,260 Climbing Potomac TRACON
02:16PM 39.3000 -76.6000 360° North 214 246 4,400 1,320 Climbing Potomac TRACON
02:17PM 39.3167 -76.6667 288° West 188 216 5,800 1,260 Climbing Potomac TRACON
02:18PM 39.3167 -76.7333 270° West 195 224 7,000 1,260 Climbing Potomac TRACON
02:19PM 39.2000 -77.0753 270° West  Level FlightAware Approximate
02:19PM 39.3167 -76.8000 270° West 193 222 8,400  Level Potomac TRACON
02:20PM 39.3333 -76.8667 288° West 196 226 9,700 1,440 Climbing Potomac TRACON
02:21PM 39.3333 -76.9333 270° West 180 207 11,300 1,080 Climbing Potomac TRACON
02:23PM 39.3464 -77.0622 278° West 199 229 13,000 900 Climbing Washington Center
02:24PM 39.3683 -77.1272 294° West 204 235 14,000 960 Climbing Washington Center
02:25PM 39.4008 -77.1897 304° West 199 229 15,000 900 Climbing Washington Center
02:26PM 39.4314 -77.2547 301° West 204 235 15,800 480 Climbing Washington Center
02:27PM 39.4636 -77.3228 302° West 215 247 16,000 60 Climbing Washington Center
02:28PM 39.5003 -77.3961 303° West 227 261 16,000 240 Level Washington Center
02:29PM 39.5386 -77.4753 302° West 249 287 16,500 840 Climbing Washington Center
02:30PM 39.5750 -77.5461 304° West 249 287 17,700 720 Climbing Washington Center
02:31PM 39.6050 -77.6142 300° West 236 272 18,000 120 Climbing Washington Center
02:32PM 39.6414 -77.6853 304° West 231 266 18,000  Level Washington Center
02:33PM 39.6775 -77.7592 302° West 236 272 18,000  Level Washington Center
02:34PM 39.7156 -77.8386 302° West 247 284 18,000  Level Washington Center
02:35PM 39.7808 -77.9708 303° West 252 290 18,000  Level Cleveland Center
02:36PM 39.8181 -78.0531 301° West 252 290 18,000  Level Cleveland Center
02:37PM 39.8594 -78.1328 304° West 257 296 18,000  Level Cleveland Center
02:38PM 39.9089 -78.2042 312° West 262 302 18,000  Level Cleveland Center
02:39PM 39.9542 -78.2783 309° West 268 308 18,000  Level Cleveland Center
02:40PM 40.0014 -78.3500 311° West 268 308 18,000  Level Cleveland Center
02:41PM 40.0467 -78.4242 309° West 268 308 18,000  Level Cleveland Center
02:42PM 40.0958 -78.4933 313° West 268 308 18,000  Level Cleveland Center
02:43PM 40.1431 -78.5678 310° West 268 308 18,000  Level Cleveland Center
02:44PM 40.1903 -78.6397 311° West 268 308 18,000  Level Cleveland Center
02:45PM 40.2353 -78.7119 309° West 268 308 18,000  Level Cleveland Center
02:46PM 40.2822 -78.7842 310° West 268 308 18,000  Level Cleveland Center
02:47PM 40.3272 -78.8564 309° West 268 308 18,000  Level Cleveland Center
02:48PM 40.3678 -78.9317 305° West 268 308 18,000  Level Cleveland Center
02:49PM 40.4106 -79.0042 308° West 263 303 18,000  Level Cleveland Center
02:50PM 40.4533 -79.0797 307° West 263 303 18,000  Level Cleveland Center
02:51PM 40.4939 -79.1553 305° West 263 303 18,000  Level Cleveland Center
02:52PM 40.5367 -79.2308 307° West 263 303 18,000  Level Cleveland Center
02:53PM 40.5833 -79.3064 309° West 258 297 18,000  Level Cleveland Center
02:54PM 40.6258 -79.3822 306° West 258 297 18,000  Level Cleveland Center
02:55PM 40.6661 -79.4581 305° West 258 297 18,000  Level Cleveland Center
02:56PM 40.7106 -79.5339 308° West 258 297 18,000  Level Cleveland Center
02:57PM 40.7531 -79.6100 306° West 258 297 18,000  Level Cleveland Center
02:58PM 40.7953 -79.6889 305° West 258 297 18,000  Level Cleveland Center
02:59PM 40.8378 -79.7653 306° West 258 297 18,000  Level Cleveland Center
03:00PM 40.8819 -79.8417 307° West 258 297 18,000  Level Cleveland Center
03:01PM 40.9219 -79.9208 304° West 258 297 18,000  Level Cleveland Center
03:02PM 40.9642 -79.9975 306° West 258 297 18,000  Level Cleveland Center
03:03PM 41.0061 -80.0714 307° West 258 297 18,000 -480 Level Cleveland Center
03:04PM 41.0483 -80.1508 305° West 258 297 17,100 -960 Descending Cleveland Center
03:05PM 41.0964 -80.2386 306° West 272 313 16,100 -1,020 Descending Cleveland Center
03:06PM 41.1447 -80.3239 307° West 284 327 15,100 -1,080 Descending Cleveland Center
03:07PM 41.1886 -80.4119 304° West 279 321 14,000 -1,080 Descending Cleveland Center
03:08PM 41.2303 -80.4892 306° West 268 308 13,000 -1,020 Descending Cleveland Center
03:09PM 41.2719 -80.5639 307° West 263 303 12,000 -1,020 Descending Cleveland Center
03:10PM 41.3094 -80.6383 304° West 256 295 11,000 -1,080 Descending Cleveland Center
03:11PM 41.3450 -80.7158 301° West 250 288 9,900 -1,020 Descending Cleveland Center
03:12PM 41.3761 -80.7989 297° West 250 288 9,000 -660 Descending Cleveland Center
03:13PM 41.3886 -80.8378 293° West 250 288 9,000  Level Cleveland Center
03:13PM 41.4050 -80.8711 303° West 250 288 9,000  Level Cleveland Center
03:14PM 41.4361 -80.9542 297° West 250 288 9,000  Level Cleveland Center
03:15PM 41.4672 -81.0347 297° West 250 288 9,000  Level Cleveland Center
03:16PM 41.4856 -81.1236 285° West 250 288 9,000  Level Cleveland Center
03:17PM 41.4958 -81.1653 288° West 238 274 9,000  Level Cleveland Center
03:17PM 41.5017 -81.2097 280° West 245 282 9,000 -360 Level Cleveland Center
03:18PM 41.5097 -81.2681 280° West 239 275 8,600 -840 Descending Cleveland Center
03:18PM 41.5136 -81.2958 281° West 240 276 8,200 -1,140 Descending Cleveland Center
03:19PM 41.5197 -81.3319 283° West 234 269 7,700 -1,140 Descending Cleveland Center
03:19PM 41.5256 -81.3792 279° West 240 276 7,100 -1,140 Descending Cleveland Center
03:20PM 41.5297 -81.4181 278° West 234 269 6,600 -1,140 Descending Cleveland Center
03:20PM 41.5333 -81.4681 276° West 240 276 6,000 -1,140 Descending Cleveland Center
03:21PM 41.5372 -81.5181 276° West 241 277 5,400 -1,140 Descending Cleveland Center
03:21PM 41.5389 -81.5542 274° West 235 270 4,900 -1,020 Descending Cleveland Center
03:22PM 41.5428 -81.6069 276° West 236 272 4,400 -900 Descending Cleveland Center
03:22PM 41.5361 -81.6372 254° West 229 264 4,000 -540 Descending Cleveland Center
03:23PM 41.5294 -81.6678 254° West 199 229 4,000 -540 Level Cleveland Center
03:24PM 41.4978 -81.7225 232° Southwest 175 201 3,300 -840 Descending Cleveland Center
03:25PM 41.4703 -81.7636 228° Southwest 152 175 2,400 -720 Descending Cleveland Center
03:26PM 41.4428 -81.8047 228° Southwest 112 129 1,800 -660 Descending Cleveland Center
03:27PM 41.4278 -81.8294 231° Southwest 115 132 1,200 -840 Descending Cleveland Center
03:29PM 41.4000 -81.8500 255° West  Level FlightAware Approximate